WetterOnline ( https://www.wetteronline.de )

Wetter aktuell Brocken

Aktuelles Wetter: Brocken (1141m)

6-stündlich | Neueste Meldungen
Ortszeit Temperatur Wetter
Fr, 12.04. 8:00 6.1° C Nebel
Fr, 12.04. 2:00 6.3° C Nebel
Do, 11.04. 20:00 6.5° C leicht bewölkt
Do, 11.04. 14:00 5.5° C bedeckt
Do, 11.04. 8:00 2.6° C leicht bewölkt
Do, 11.04. 2:00 2.2° C wolkenlos
Mi, 10.04. 20:00 3.4° C wolkenlos
Mi, 10.04. 14:00 4.3° C bedeckt
Ortszeit Temperatur Wetter
Fr, 12.04. 13:00 10.8° C wolkig
Fr, 12.04. 12:40 10.4° C bedeckt
Fr, 12.04. 12:30 9.9° C bewölkt
Fr, 12.04. 12:20 9.9° C bewölkt
Fr, 12.04. 12:10 9.4° C bewölkt
Fr, 12.04. 12:00 9.8° C leicht bewölkt
Fr, 12.04. 11:50 9.8° C wolkig
Fr, 12.04. 11:30 8.4° C bewölkt
Fr, 12.04. 11:00 8.0° C wolkig
Fr, 12.04. 10:30 7.3° C bewölkt
Fr, 12.04. 10:00 6.6° C Nebel
Ortszeit Relative Feuchte Sichtweite
Fr, 12.04. 8:00 99% <100 m
Fr, 12.04. 2:00 98% <100 m
Do, 11.04. 20:00 87% 50 km
Do, 11.04. 14:00 72% 50 km
Do, 11.04. 8:00 71% 60 km
Do, 11.04. 2:00 88% 30 km
Mi, 10.04. 20:00 78% 60 km
Mi, 10.04. 14:00 82% 30 km
Ortszeit Relative Feuchte Sichtweite
Fr, 12.04. 13:00 76% 65 km
Fr, 12.04. 12:40 78% -
Fr, 12.04. 12:30 79% 35 km
Fr, 12.04. 12:20 79% -
Fr, 12.04. 12:10 83% -
Fr, 12.04. 12:00 79% 30 km
Fr, 12.04. 11:50 79% -
Fr, 12.04. 11:30 87% 25 km
Fr, 12.04. 11:00 90% 25 km
Fr, 12.04. 10:30 93% 14 km
Fr, 12.04. 10:00 96% 9 km
Ortszeit Niederschlagsmenge Niederschlagsart
Fr, 12.04. 8:00 0.1 l/m2 in 12 Std. -
Fr, 12.04. 2:00 0.0 l/m2 in 6 Std. -
Do, 11.04. 20:00 0.0 l/m2 in 12 Std. -
Do, 11.04. 14:00 0.0 l/m2 in 6 Std. -
Do, 11.04. 8:00 0.0 l/m2 in 12 Std. -
Do, 11.04. 2:00 0.0 l/m2 in 6 Std. -
Mi, 10.04. 20:00 0.0 l/m2 in 12 Std. -
Mi, 10.04. 14:00 0.0 l/m2 in 6 Std. -
Ortszeit Niederschlagsmenge Niederschlagsart
Fr, 12.04. 13:00 0.0 l/m2 in 1 Std. -
Fr, 12.04. 12:40 keine Meldung -
Fr, 12.04. 12:30 0.0 l/m2 in 30 Min -
Fr, 12.04. 12:20 keine Meldung -
Fr, 12.04. 12:10 keine Meldung -
Fr, 12.04. 12:00 0.0 l/m2 in 1 Std. -
Fr, 12.04. 11:50 keine Meldung -
Fr, 12.04. 11:30 0.0 l/m2 in 30 Min -
Fr, 12.04. 11:00 0.0 l/m2 in 1 Std. -
Fr, 12.04. 10:30 0.0 l/m2 in 30 Min -
Fr, 12.04. 10:00 0.0 l/m2 in 1 Std. -
Ortszeit Stärke Spitze Richtung
km/h Bft. km/h Grad Sektor
Fr, 12.04. 8:00 43 6 54 240° SW
Fr, 12.04. 2:00 28 4 52 260° W
Do, 11.04. 20:00 29 5 50 250° W
Do, 11.04. 14:00 36 5 76 220° SW
Do, 11.04. 8:00 54 7 72 230° SW
Do, 11.04. 2:00 47 6 54 220° SW
Mi, 10.04. 20:00 22 4 40 250° W
Mi, 10.04. 14:00 31 5 70 270° W
Ortszeit Stärke Spitze Richtung
km/h Bft. km/h Grad Sektor
Fr, 12.04. 13:00 37 5 44 240° SW
Fr, 12.04. 12:40 33 5 - 240° SW
Fr, 12.04. 12:30 26 4 43 240° SW
Fr, 12.04. 12:20 26 4 - 240° SW
Fr, 12.04. 12:10 28 4 - 240° SW
Fr, 12.04. 12:00 33 5 46 240° SW
Fr, 12.04. 11:50 33 5 - 240° SW
Fr, 12.04. 11:30 33 5 46 230° SW
Fr, 12.04. 11:00 35 5 50 240° SW
Fr, 12.04. 10:30 40 6 50 230° SW
Fr, 12.04. 10:00 40 6 58 240° SW
Ortszeit Untergrenze Bedeckung Gattung
total tief tief mittel hoch
Fr, 12.04. 8:00 <30 m 8/8 0/8 - - -
Fr, 12.04. 2:00 <30 m 8/8 0/8 - - -
Do, 11.04. 20:00 8100 m 6/8 0/8 - - -
Do, 11.04. 14:00 1050 m 8/8 8/8 - - -
Do, 11.04. 8:00 8400 m 8/8 0/8 - - -
Do, 11.04. 2:00 - 0/8 0/8 - - -
Mi, 10.04. 20:00 - 0/8 0/8 - - -
Mi, 10.04. 14:00 150 m 8/8 8/8 - - -
Ortszeit Bedeckungsgrad in Achtel und Wolkenuntergrenze
Fr, 12.04. 13:00 2(5100m) 7(9000m) 8(9000m)
Fr, 12.04. 12:40 8
Fr, 12.04. 12:30 6(5400m) 7(6000m) 8(7500m)
Fr, 12.04. 12:20 6(5400m) 7(6000m) 8(7500m)
Fr, 12.04. 12:10 7
Fr, 12.04. 12:00 1(90m) 7(6300m) 7(7800m)
Fr, 12.04. 11:50 1(90m) 7(6300m) 7(7800m)
Fr, 12.04. 11:30 7(120m)
Fr, 12.04. 11:00 5(90m) 6(7200m)
Fr, 12.04. 10:30 7(60m)
Fr, 12.04. 10:00 7(30m)
Ortszeit Stationsdruck (hPa) Tendenz (hPa in 3 Std.)
Fr, 12.04. 8:00 898 - 0,5
Fr, 12.04. 2:00 899 - 0,2
Do, 11.04. 20:00 899 + 0,2
Do, 11.04. 14:00 899 + 0,9
Do, 11.04. 8:00 896 - 0,1
Do, 11.04. 2:00 897 - 0,3
Mi, 10.04. 20:00 896 + 0,9
Mi, 10.04. 14:00 894 + 2,0
Ortszeit Stationsdruck (hPa) Tendenz (hPa in 3 Std.)
Fr, 12.04. 13:00 898 + 0,3
Fr, 12.04. 12:40 898 keine Meldung
Fr, 12.04. 12:30 898 + 0,4
Fr, 12.04. 12:20 898 keine Meldung
Fr, 12.04. 12:10 898 keine Meldung
Fr, 12.04. 12:00 898 + 0,3
Fr, 12.04. 11:50 898 keine Meldung
Fr, 12.04. 11:30 898 + 0,2
Fr, 12.04. 11:00 898 + 0,2
Fr, 12.04. 10:30 898 + 0,2
Fr, 12.04. 10:00 898 0,0
Ortszeit Schneehöhe (cm)
Fr, 12.04. 8:00 0
Fr, 12.04. 2:00 0
Do, 11.04. 20:00 0
Do, 11.04. 14:00 0
Do, 11.04. 8:00 0
Do, 11.04. 2:00 0
Mi, 10.04. 20:00 0
Mi, 10.04. 14:00 0
Ortszeit Schneehöhe (cm)
Fr, 12.04. 13:00 0
Fr, 12.04. 12:40 -
Fr, 12.04. 12:30 0
Fr, 12.04. 12:20 0
Fr, 12.04. 12:10 -
Fr, 12.04. 12:00 0
Fr, 12.04. 11:50 0
Fr, 12.04. 11:30 0
Fr, 12.04. 11:00 0
Fr, 12.04. 10:30 0
Fr, 12.04. 10:00 0
Link zu dieser Seite / Seite empfehlen

Das Wetter in ...